Impacts METAR Board
IDs:

KLZZ - Lampasas Arpt, TX, US

Updated at: 0500 UTC 19 Aug 2019
Potential Impact None Slight Moderate High
Time 18/17Z 18/18Z 18/19Z 18/20Z 18/21Z 18/22Z 18/23Z 19/00Z 19/01Z 19/02Z 19/03Z 19/04Z 19/05Z
Temp92 94 96 98 99 99 98 97 94 87 86
Dewpt67 65 64 64 64 64 65 63 65 67 68
Altim29.91 29.91 29.89 29.87 29.86 29.85 29.84 29.85 29.85 29.91 29.93
VIS10 10 10 10 10 10 10 10 10 10 10
CIG-- -- -- -- -- -- -- -- -- -- --
CoverCLRCLRCLRCLRCLRCLRCLRCLRCLRCLRCLR
FltCatVFRVFRVFRVFRVFRVFRVFRVFRVFRVFRVFR
WX----------------------
WDir190180170190150170150170140170180
WSpd6 6 6 7 10 5 10 9 6 7 9
WGst-- -- -- -- 15 8 -- -- -- -- --
Raw hourly METARs
KLZZ 181655Z AUTO 19006KT 10SM CLR 33/19 A2991 RMK AO2 T03310194
KLZZ 181755Z AUTO 18006KT 10SM CLR 35/18 A2991 RMK AO2 T03450184 10346 20243
KLZZ 181855Z AUTO 17006KT 10SM CLR 36/18 A2989 RMK AO2 T03570180
KLZZ 181955Z AUTO 19007KT 160V220 10SM CLR 37/18 A2987 RMK AO2 T03680178
KLZZ 182055Z AUTO 15010G15KT 10SM CLR 37/18 A2986 RMK AO2 T03700179
KLZZ 182155Z AUTO 17005G08KT 10SM CLR 37/18 A2985 RMK AO2 T03730176
KLZZ 182255Z AUTO 15010KT 10SM CLR 37/18 A2984 RMK AO2 T03670181
KLZZ 182355Z AUTO 17009KT 10SM CLR 36/17 A2985 RMK AO2 T03610172 10375 20340
KLZZ 190055Z AUTO 14006KT 10SM CLR 34/18 A2985 RMK AO2 T03420181


KLZZ 190355Z AUTO 17007KT 10SM CLR 31/19 A2991 RMK AO2 T03060192
KLZZ 190455Z AUTO 18009KT 10SM CLR 30/20 A2993 RMK AO2 T03000198



Page loaded:  05:50 UTC  |   10:50 PM Pacific  |   11:50 PM Mountain  |   12:50 AM Central  |   01:50 AM Eastern

 

ADVISORIES

FORECASTS

FORECASTS

OBSERVATIONS

USER TOOLS

ABOUT US